Time;durP1;ratioP1;P1;durP2;ratioP2;P2;SDS_P1;SDS_P2;PMS_P1;PMS_P2;Temp;Humidity;BMP_temperature;BMP_pressure;BME280_temperature;BME280_humidity;BME280_pressure;Samples;Min_cycle;Max_cycle;Signal;HPM_P1;HPM_P2
2021/12/12 00:01:31;;;;;;;124.63;50.87;;;0.00;99.90;;;;;;10164264;29;20393;-81
2021/12/12 00:06:36;;;;;;;142.57;54.40;;;0.00;99.90;;;;;;10167666;29;20032;-81
2021/12/12 00:11:37;;;;;;;123.50;49.83;;;0.00;99.90;;;;;;10172252;29;20031;-81
2021/12/12 00:16:40;;;;;;;115.60;46.23;;;0.00;99.90;;;;;;10171102;29;20036;-81
2021/12/12 00:21:45;;;;;;;120.43;49.60;;;-0.10;99.90;;;;;;10161735;29;20035;-80
2021/12/12 00:26:49;;;;;;;128.77;50.90;;;-0.10;99.90;;;;;;10159753;29;20050;-81
2021/12/12 00:31:53;;;;;;;120.97;49.77;;;-0.10;99.90;;;;;;10171714;29;20066;-80
2021/12/12 00:36:54;;;;;;;124.93;51.60;;;-0.10;99.90;;;;;;10172028;29;20031;-81
2021/12/12 00:42:06;;;;;;;130.30;52.07;;;-0.10;99.90;;;;;;10162928;29;20028;-81
2021/12/12 00:47:09;;;;;;;122.30;49.03;;;0.00;99.90;;;;;;10171298;29;20024;-83
2021/12/12 00:52:15;;;;;;;129.23;51.70;;;0.00;99.90;;;;;;10170983;29;20088;-84
2021/12/12 00:57:19;;;;;;;117.10;46.50;;;0.00;99.90;;;;;;10171016;29;20055;-81
2021/12/12 01:02:23;;;;;;;110.33;42.43;;;0.00;99.90;;;;;;10171308;29;20483;-82
2021/12/12 01:07:31;;;;;;;112.70;44.33;;;0.00;99.90;;;;;;10168207;29;20028;-81
2021/12/12 01:12:33;;;;;;;113.47;46.07;;;0.10;99.90;;;;;;10147776;29;20111;-82
2021/12/12 01:17:41;;;;;;;110.07;44.87;;;0.10;99.90;;;;;;10169332;29;20032;-81
2021/12/12 01:22:43;;;;;;;121.23;48.03;;;0.10;99.90;;;;;;10169338;29;20028;-81
2021/12/12 01:27:44;;;;;;;132.13;49.10;;;0.10;99.90;;;;;;10168214;29;20060;-84
2021/12/12 01:32:47;;;;;;;131.63;50.47;;;0.10;99.90;;;;;;10164012;29;20047;-83
2021/12/12 01:43:19;;;;;;;121.40;48.00;;;0.10;99.90;;;;;;10156411;29;20036;-81
2021/12/12 01:48:20;;;;;;;126.13;48.90;;;0.10;99.90;;;;;;10169771;29;20071;-80
2021/12/12 01:53:27;;;;;;;120.47;49.57;;;0.10;99.90;;;;;;10158460;29;20461;-81
2021/12/12 01:58:30;;;;;;;112.47;44.23;;;0.10;99.90;;;;;;10154227;29;20063;-81
2021/12/12 02:03:34;;;;;;;125.20;48.50;;;0.00;99.90;;;;;;10168865;29;20024;-80
2021/12/12 02:08:36;;;;;;;126.90;53.27;;;-0.10;99.90;;;;;;10158926;29;20020;-80
2021/12/12 02:13:44;;;;;;;139.63;52.40;;;0.00;99.90;;;;;;10168730;29;20079;-81
2021/12/12 02:18:49;;;;;;;150.77;62.97;;;-0.10;99.90;;;;;;10166686;29;20054;-81
2021/12/12 02:39:50;;;;;;;129.50;51.50;;;0.00;99.90;;;;;;10168254;29;20036;-81
2021/12/12 02:44:56;;;;;;;141.43;57.43;;;0.00;99.90;;;;;;10164330;29;20036;-81
2021/12/12 02:50:09;;;;;;;145.23;58.67;;;0.00;99.90;;;;;;10173745;29;20024;-81
2021/12/12 02:55:17;;;;;;;141.33;59.73;;;0.00;99.90;;;;;;10174266;29;20106;-81
2021/12/12 03:00:21;;;;;;;147.23;58.50;;;0.00;99.90;;;;;;10175201;29;20595;-82
2021/12/12 03:05:24;;;;;;;133.07;57.57;;;0.00;99.90;;;;;;10175020;29;20028;-81
2021/12/12 03:10:29;;;;;;;156.03;63.23;;;0.00;99.90;;;;;;10169282;29;20044;-81
2021/12/12 03:15:34;;;;;;;146.40;56.40;;;0.00;99.90;;;;;;10173420;29;20021;-81
2021/12/12 03:20:42;;;;;;;136.90;55.43;;;0.00;99.90;;;;;;10173687;29;20020;-81
2021/12/12 03:25:44;;;;;;;134.57;55.10;;;0.00;99.90;;;;;;10173934;29;20464;-81
2021/12/12 03:30:47;;;;;;;119.57;46.60;;;0.00;99.90;;;;;;10173826;29;20550;-81
2021/12/12 03:35:51;;;;;;;116.33;45.60;;;0.00;99.90;;;;;;10166498;29;20029;-81
2021/12/12 03:40:51;;;;;;;118.23;46.80;;;0.00;99.90;;;;;;10174572;29;20053;-81
2021/12/12 03:45:53;;;;;;;118.07;44.73;;;0.00;99.90;;;;;;10172488;29;20068;-80
2021/12/12 03:50:56;;;;;;;115.10;47.30;;;-0.10;99.90;;;;;;10173968;29;20072;-81
2021/12/12 03:55:58;;;;;;;111.23;47.37;;;0.00;99.90;;;;;;10173319;29;20060;-80
2021/12/12 04:01:14;;;;;;;137.63;51.97;;;0.00;99.90;;;;;;10163045;29;20046;-81
2021/12/12 04:06:18;;;;;;;114.57;47.57;;;0.00;99.90;;;;;;10166662;29;20028;-81
2021/12/12 04:11:28;;;;;;;121.17;49.87;;;0.00;99.90;;;;;;10173043;29;20149;-84
2021/12/12 04:16:31;;;;;;;120.33;48.97;;;0.00;99.90;;;;;;10143534;29;20032;-81
2021/12/12 04:21:32;;;;;;;123.87;50.00;;;0.00;99.90;;;;;;10141209;29;20032;-82
2021/12/12 04:26:38;;;;;;;124.23;49.33;;;0.00;99.90;;;;;;10172469;29;20028;-81
2021/12/12 04:31:43;;;;;;;122.03;47.72;;;0.00;99.90;;;;;;10171421;29;20476;-83
2021/12/12 04:36:46;;;;;;;113.57;47.90;;;-0.10;99.90;;;;;;10149711;29;20058;-81
2021/12/12 04:41:50;;;;;;;123.07;47.87;;;-0.10;99.90;;;;;;10171183;29;20384;-81
2021/12/12 04:52:59;;;;;;;118.03;48.67;;;-0.10;99.90;;;;;;10169411;29;20083;-80
2021/12/12 04:58:13;;;;;;;121.95;49.60;;;-0.10;99.90;;;;;;10171855;29;20071;-81
2021/12/12 05:03:20;;;;;;;137.87;53.87;;;-0.20;99.90;;;;;;10161588;29;20031;-81
2021/12/12 05:08:35;;;;;;;129.17;50.27;;;-0.20;99.90;;;;;;10170682;29;20468;-80
2021/12/12 05:13:41;;;;;;;118.77;48.00;;;-0.20;99.90;;;;;;10169975;29;20047;-84
2021/12/12 05:18:49;;;;;;;;;;;-0.20;99.90;;;;;;10148891;29;20029;-82
2021/12/12 05:23:52;;;;;;;129.33;53.83;;;-0.30;99.90;;;;;;10163026;29;19974;-80
2021/12/12 05:29:33;;;;;;;134.90;52.00;;;-0.30;99.90;;;;;;10170010;29;20051;-80
2021/12/12 05:34:36;;;;;;;133.20;54.70;;;-0.30;99.90;;;;;;10155555;29;20564;-84
2021/12/12 05:39:38;;;;;;;123.30;49.63;;;-0.30;99.90;;;;;;10168812;29;20079;-83
2021/12/12 05:44:39;;;;;;;130.83;52.93;;;-0.40;99.90;;;;;;10169421;29;20052;-81
2021/12/12 05:49:42;;;;;;;131.87;51.03;;;-0.50;99.90;;;;;;10150995;29;20062;-80
2021/12/12 05:54:46;;;;;;;134.77;52.13;;;-0.50;99.90;;;;;;10169472;29;20039;-80
2021/12/12 05:59:46;;;;;;;126.70;49.00;;;-0.60;99.90;;;;;;10163807;29;20048;-81
2021/12/12 06:04:47;;;;;;;124.87;49.10;;;-0.60;99.90;;;;;;10153636;29;20103;-81
2021/12/12 06:09:50;;;;;;;112.77;45.17;;;-0.70;99.90;;;;;;10167917;29;20032;-81
2021/12/12 06:14:52;;;;;;;106.13;43.77;;;-0.90;99.90;;;;;;10166914;29;20417;-80
2021/12/12 06:19:55;;;;;;;128.47;53.23;;;-0.90;99.90;;;;;;10165500;29;20028;-82
2021/12/12 06:24:56;;;;;;;120.90;47.50;;;-1.00;99.90;;;;;;10174285;29;20027;-82
2021/12/12 06:29:57;;;;;;;168.17;68.40;;;-1.10;99.90;;;;;;10156995;29;20035;-85
2021/12/12 06:34:58;;;;;;;264.07;112.93;;;-1.20;99.90;;;;;;10166669;29;20098;-80
2021/12/12 06:39:59;;;;;;;274.20;124.03;;;-1.30;99.90;;;;;;10167129;29;20028;-83
2021/12/12 06:45:00;;;;;;;290.90;120.40;;;-1.40;99.90;;;;;;10155898;29;20467;-81
2021/12/12 06:50:03;;;;;;;217.40;93.83;;;-1.50;99.90;;;;;;10165239;29;20043;-82
2021/12/12 06:55:08;;;;;;;254.53;101.63;;;-1.70;99.90;;;;;;10147574;29;20376;-84
2021/12/12 07:00:13;;;;;;;202.47;87.63;;;-2.00;99.90;;;;;;10199906;29;20044;-81
2021/12/12 07:05:20;;;;;;;247.02;99.13;;;-2.20;99.90;;;;;;10205041;29;20472;-81
2021/12/12 07:10:23;;;;;;;242.67;92.77;;;-2.40;99.90;;;;;;10206101;29;20074;-82
2021/12/12 07:15:44;;;;;;;272.37;105.87;;;-2.40;99.90;;;;;;10179029;29;20019;-80
2021/12/12 07:20:50;;;;;;;211.43;87.70;;;-2.40;99.90;;;;;;10205873;29;20015;-82
2021/12/12 07:25:51;;;;;;;;;;;-2.40;99.90;;;;;;10198463;29;20481;-83
2021/12/12 07:30:52;;;;;;;190.97;77.63;;;-2.50;99.90;;;;;;10206310;29;19910;-84
2021/12/12 07:35:58;;;;;;;285.07;119.10;;;-2.50;99.90;;;;;;10208089;29;20027;-83
2021/12/12 07:41:00;;;;;;;336.40;138.53;;;-2.40;99.90;;;;;;10213329;29;20395;-81
2021/12/12 07:46:01;;;;;;;359.00;151.90;;;-2.20;99.90;;;;;;10213226;29;20056;-82
2021/12/12 07:51:03;;;;;;;478.63;204.67;;;-2.20;99.90;;;;;;10202389;29;20079;-84
2021/12/12 07:56:04;;;;;;;390.83;165.60;;;-1.90;99.90;;;;;;10185789;29;20480;-82
2021/12/12 08:01:06;;;;;;;296.93;120.73;;;-1.70;99.90;;;;;;10158945;29;20044;-84
2021/12/12 08:06:08;;;;;;;264.77;112.57;;;-1.50;99.90;;;;;;10149437;29;20032;-81
2021/12/12 08:11:09;;;;;;;259.90;107.10;;;-1.20;99.90;;;;;;10173229;29;20481;-82
2021/12/12 08:16:10;;;;;;;262.90;109.40;;;-1.00;99.90;;;;;;10168465;29;20040;-83
2021/12/12 08:21:12;;;;;;;261.70;112.07;;;-0.70;99.90;;;;;;10140755;29;20024;-82
2021/12/12 08:26:13;;;;;;;257.13;105.90;;;-0.40;99.90;;;;;;10172653;29;20016;-83
2021/12/12 08:31:16;;;;;;;300.03;125.37;;;-0.10;99.90;;;;;;10172266;29;20021;-83
2021/12/12 08:36:17;;;;;;;257.90;106.50;;;0.20;99.90;;;;;;10157943;29;20054;-83
2021/12/12 08:41:18;;;;;;;178.97;77.40;;;0.60;99.90;;;;;;10157057;29;20107;-82
2021/12/12 08:46:20;;;;;;;147.47;63.70;;;0.90;99.90;;;;;;10140827;29;20028;-83
2021/12/12 08:51:31;;;;;;;114.10;48.57;;;1.30;99.90;;;;;;10151024;29;20039;-86
2021/12/12 08:56:44;;;;;;;103.73;45.03;;;1.60;99.90;;;;;;10169230;29;20052;-83
2021/12/12 09:01:48;;;;;;;97.07;42.70;;;1.90;99.90;;;;;;10151136;29;20021;-85
2021/12/12 09:07:32;;;;;;;73.03;30.17;;;2.10;99.90;;;;;;10153601;29;20472;-83
2021/12/12 09:24:10;;;;;;;100.43;42.93;;;1.80;99.90;;;;;;10116447;29;20044;-82
2021/12/12 09:29:27;;;;;;;60.33;24.03;;;1.50;99.90;;;;;;10201560;28;20097;-85
2021/12/12 09:34:38;;;;;;;79.40;31.67;;;1.30;99.90;;;;;;10221143;28;20056;-86
2021/12/12 09:39:52;;;;;;;146.10;61.77;;;1.20;99.90;;;;;;10211538;28;20061;-84
2021/12/12 09:44:53;;;;;;;81.37;34.73;;;1.20;99.90;;;;;;10209160;29;20016;-85
2021/12/12 09:56:01;;;;;;;;;;;0.90;99.90;;;;;;10191627;28;20493;-84
2021/12/12 10:01:10;;;;;;;108.67;46.50;;;0.80;99.90;;;;;;10225441;28;19906;-86
2021/12/12 10:06:32;;;;;;;63.23;26.13;;;1.00;99.90;;;;;;10242830;28;20019;-86
2021/12/12 10:11:35;;;;;;;98.33;38.73;;;0.90;99.90;;;;;;10228583;28;20047;-86
2021/12/12 10:17:00;;;;;;;116.60;50.73;;;1.10;99.90;;;;;;10224002;28;20391;-84
2021/12/12 10:22:25;;;;;;;94.90;40.73;;;1.30;99.90;;;;;;10225781;28;20027;-82
2021/12/12 10:27:44;;;;;;;107.57;44.73;;;1.40;99.90;;;;;;10212844;28;20058;-84
2021/12/12 10:32:56;;;;;;;103.07;41.87;;;1.50;99.90;;;;;;10216971;28;20125;-84
2021/12/12 10:38:22;;;;;;;83.03;33.40;;;1.40;99.90;;;;;;10209135;28;20047;-84
2021/12/12 10:43:43;;;;;;;100.20;43.38;;;1.40;99.90;;;;;;10231063;28;20028;-85
2021/12/12 10:49:00;;;;;;;75.93;35.17;;;1.40;99.90;;;;;;10214206;28;20035;-88
2021/12/12 10:54:06;;;;;;;69.63;26.03;;;1.40;99.90;;;;;;10215945;29;20036;-84
2021/12/12 10:59:33;;;;;;;59.77;22.33;;;1.50;99.90;;;;;;10205612;29;20023;-83
2021/12/12 11:04:42;;;;;;;48.53;19.67;;;1.60;99.90;;;;;;10232328;29;20399;-85
2021/12/12 11:09:45;;;;;;;63.70;24.87;;;1.70;99.90;;;;;;10229643;28;20032;-86
2021/12/12 11:14:59;;;;;;;55.37;23.83;;;1.80;99.90;;;;;;10211641;29;20039;-83
2021/12/12 11:20:40;;;;;;;60.63;26.60;;;2.00;99.90;;;;;;10212066;29;20050;-83
2021/12/12 11:26:04;;;;;;;47.93;20.77;;;2.00;99.90;;;;;;10165424;29;20491;-83
2021/12/12 11:31:12;;;;;;;51.63;21.97;;;2.10;99.90;;;;;;10224402;29;20047;-83
2021/12/12 11:36:17;;;;;;;49.60;22.07;;;1.90;99.90;;;;;;10214338;29;20024;-86
2021/12/12 11:41:32;;;;;;;43.47;19.60;;;2.10;99.90;;;;;;10213700;29;20479;-82
2021/12/12 11:46:47;;;;;;;49.77;21.00;;;2.10;99.90;;;;;;10213983;29;20771;-83
2021/12/12 11:52:07;;;;;;;48.40;20.80;;;2.10;99.90;;;;;;10213423;29;20040;-83
2021/12/12 11:57:31;;;;;;;42.17;18.17;;;2.20;99.90;;;;;;10220400;29;20031;-83
2021/12/12 12:02:50;;;;;;;40.47;17.70;;;2.30;99.90;;;;;;10252415;28;20082;-86
2021/12/12 12:08:13;;;;;;;41.17;17.80;;;2.30;99.90;;;;;;10233441;28;20042;-83
2021/12/12 12:13:58;;;;;;;45.23;19.20;;;2.20;99.90;;;;;;10210996;28;20420;-84
2021/12/12 12:19:41;;;;;;;46.27;18.30;;;2.20;99.90;;;;;;10198433;28;20574;-86
2021/12/12 12:24:58;;;;;;;46.20;18.80;;;2.20;99.90;;;;;;10184199;28;20039;-85
2021/12/12 12:30:07;;;;;;;42.50;17.57;;;2.10;99.90;;;;;;10212281;28;20035;-85
2021/12/12 12:35:42;;;;;;;46.60;18.60;;;2.10;99.90;;;;;;10206592;28;20043;-83
2021/12/12 12:41:16;;;;;;;43.17;18.80;;;2.10;99.90;;;;;;10215754;28;20032;-82
2021/12/12 12:46:55;;;;;;;45.03;18.53;;;2.10;99.90;;;;;;10211604;28;20040;-84
2021/12/12 12:52:07;;;;;;;37.53;17.37;;;2.20;99.90;;;;;;10214891;29;20079;-85
2021/12/12 12:57:19;;;;;;;43.07;18.73;;;2.20;99.90;;;;;;10220846;29;20028;-88
2021/12/12 13:02:34;;;;;;;45.93;18.60;;;2.20;99.90;;;;;;10209929;28;20127;-84
2021/12/12 13:07:41;;;;;;;42.67;17.00;;;2.20;99.90;;;;;;10207381;28;20034;-86
2021/12/12 13:12:53;;;;;;;40.67;17.23;;;2.10;99.90;;;;;;10213954;28;20040;-85
2021/12/12 13:17:54;;;;;;;35.30;16.27;;;2.10;99.90;;;;;;10204570;29;20043;-85
2021/12/12 13:23:10;;;;;;;35.10;15.93;;;2.00;99.90;;;;;;10199762;28;20024;-83
2021/12/12 13:28:27;;;;;;;39.90;16.50;;;1.90;99.90;;;;;;10208221;28;20505;-92
2021/12/12 13:33:34;;;;;;;37.50;16.30;;;1.70;99.90;;;;;;10203254;28;20101;-85
2021/12/12 13:39:15;;;;;;;39.27;16.43;;;1.50;99.90;;;;;;10204301;28;20166;-84
2021/12/12 13:44:55;;;;;;;40.73;17.20;;;1.20;99.90;;;;;;10205647;28;20529;-88
2021/12/12 13:49:58;;;;;;;36.27;16.77;;;0.90;99.90;;;;;;10201625;28;20411;-84
2021/12/12 13:55:09;;;;;;;47.97;17.77;;;0.70;99.90;;;;;;10201963;28;20082;-87
2021/12/12 14:00:13;;;;;;;36.10;14.77;;;0.60;99.90;;;;;;10219442;28;20038;-84
2021/12/12 14:05:23;;;;;;;36.07;15.40;;;0.50;99.90;;;;;;10201582;28;20078;-87
2021/12/12 14:10:31;;;;;;;50.13;18.87;;;0.50;99.90;;;;;;10203756;28;20548;-84
2021/12/12 14:15:40;;;;;;;58.70;22.23;;;0.50;99.90;;;;;;10210288;28;20083;-84
2021/12/12 14:20:49;;;;;;;64.87;24.57;;;0.40;99.90;;;;;;10215741;29;20101;-83
2021/12/12 14:25:57;;;;;;;57.10;22.63;;;0.20;99.90;;;;;;10223138;28;20383;-84
2021/12/12 14:30:58;;;;;;;51.50;20.40;;;0.10;99.90;;;;;;10214711;28;20046;-84
2021/12/12 14:36:04;;;;;;;61.00;23.37;;;-0.10;99.90;;;;;;10214775;28;20031;-83
2021/12/12 14:41:06;;;;;;;50.65;21.55;;;-0.50;99.90;;;;;;10216543;29;20035;-83
2021/12/12 14:46:17;;;;;;;51.60;19.67;;;-0.90;99.90;;;;;;10212607;29;20090;-82
2021/12/12 14:51:23;;;;;;;54.87;22.63;;;-1.00;99.90;;;;;;10209142;29;20067;-83
2021/12/12 14:56:32;;;;;;;73.67;30.17;;;-1.20;99.90;;;;;;10221121;29;20264;-82
2021/12/12 15:01:32;;;;;;;111.70;39.43;;;-1.20;99.90;;;;;;10213163;28;20438;-85
2021/12/12 15:07:03;;;;;;;116.50;43.87;;;-1.30;99.90;;;;;;10211991;28;20086;-81
2021/12/12 15:12:14;;;;;;;115.97;42.87;;;-1.30;99.90;;;;;;10222579;28;20113;-83
2021/12/12 15:17:17;;;;;;;111.30;44.53;;;-1.40;99.90;;;;;;10212174;28;20058;-82
2021/12/12 15:22:21;;;;;;;131.20;51.30;;;-1.40;99.90;;;;;;10215684;28;20441;-82
2021/12/12 15:27:29;;;;;;;126.83;51.63;;;-1.60;99.90;;;;;;10216638;28;20039;-81
2021/12/12 15:32:31;;;;;;;128.57;51.37;;;-1.80;99.90;;;;;;10210620;28;20454;-82
2021/12/12 15:37:35;;;;;;;118.17;49.07;;;-1.90;99.90;;;;;;10206133;28;20814;-83
2021/12/12 15:42:39;;;;;;;138.53;53.47;;;-2.10;99.90;;;;;;10216965;28;20035;-85
2021/12/12 15:47:42;;;;;;;160.67;62.43;;;-2.20;99.90;;;;;;10219912;28;20605;-84
2021/12/12 15:52:53;;;;;;;268.53;101.33;;;-2.30;99.90;;;;;;10207002;28;20035;-82
2021/12/12 15:57:58;;;;;;;289.93;111.03;;;-2.40;99.90;;;;;;10227776;28;20038;-82
2021/12/12 16:03:08;;;;;;;250.97;99.57;;;-2.50;99.90;;;;;;10214105;28;20039;-82
2021/12/12 16:08:12;;;;;;;199.30;78.80;;;-2.50;99.90;;;;;;10213166;28;20094;-83
2021/12/12 16:13:23;;;;;;;358.30;141.73;;;-2.60;99.90;;;;;;10222292;29;20126;-83
2021/12/12 16:18:30;;;;;;;239.40;100.87;;;-2.50;99.90;;;;;;10211869;28;20074;-82
2021/12/12 16:23:31;;;;;;;195.97;80.27;;;-2.60;99.90;;;;;;10211344;29;20075;-83
2021/12/12 16:28:35;;;;;;;182.00;72.40;;;-2.70;99.90;;;;;;10213845;28;20070;-82
2021/12/12 16:33:43;;;;;;;173.70;72.70;;;-2.80;99.90;;;;;;10216755;28;20535;-81
2021/12/12 16:38:44;;;;;;;194.90;74.70;;;-2.90;99.90;;;;;;10211167;29;20144;-84
2021/12/12 16:43:50;;;;;;;234.97;92.80;;;-2.90;99.90;;;;;;10220952;29;20050;-83
2021/12/12 16:48:57;;;;;;;415.63;196.60;;;-3.00;99.90;;;;;;10218416;29;20020;-85
2021/12/12 16:54:00;;;;;;;649.80;356.43;;;-3.00;99.90;;;;;;10209107;28;20160;-82
2021/12/12 16:59:01;;;;;;;524.97;272.27;;;-3.10;99.90;;;;;;10221982;28;20031;-82
2021/12/12 17:04:09;;;;;;;451.03;208.90;;;-3.20;99.90;;;;;;10209451;28;20422;-82
2021/12/12 17:09:20;;;;;;;377.87;169.03;;;-3.30;99.90;;;;;;10210765;28;20452;-82
2021/12/12 17:14:23;;;;;;;427.73;184.67;;;-3.40;99.90;;;;;;10216631;28;20061;-82
2021/12/12 17:19:34;;;;;;;640.07;303.93;;;-3.40;99.90;;;;;;10215614;28;20507;-83
2021/12/12 17:24:41;;;;;;;571.37;265.80;;;-3.40;99.90;;;;;;10218756;28;20058;-85
2021/12/12 17:29:45;;;;;;;520.87;247.40;;;-3.40;99.90;;;;;;10223661;29;20519;-84
2021/12/12 17:34:53;;;;;;;485.10;218.17;;;-3.50;99.90;;;;;;10208338;29;20083;-88
2021/12/12 17:40:08;;;;;;;462.10;201.33;;;-3.50;99.90;;;;;;10216248;29;20020;-87
2021/12/12 17:46:05;;;;;;;449.10;199.53;;;-3.60;99.90;;;;;;10217850;29;20064;-84
2021/12/12 17:51:24;;;;;;;;;;;-3.70;99.90;;;;;;10212045;29;20889;-88
2021/12/12 17:56:38;;;;;;;349.53;145.27;;;-2.10;99.90;;;;;;10212023;29;19965;-85
2021/12/12 18:01:48;;;;;;;345.13;146.37;;;-1.50;99.90;;;;;;10216530;29;20039;-84
2021/12/12 18:07:03;;;;;;;333.90;145.17;;;-1.90;99.90;;;;;;10204173;29;20151;-85
2021/12/12 18:12:16;;;;;;;331.83;140.37;;;-2.70;99.90;;;;;;10207879;29;20812;-85
2021/12/12 18:17:32;;;;;;;316.50;133.63;;;-3.30;99.90;;;;;;10212581;28;20066;-82
2021/12/12 18:22:40;;;;;;;309.63;130.63;;;-3.50;99.90;;;;;;10221308;28;20494;-84
2021/12/12 18:27:45;;;;;;;331.57;141.07;;;-3.80;99.90;;;;;;10213886;29;20023;-82
2021/12/12 18:32:47;;;;;;;402.33;185.93;;;-3.90;99.90;;;;;;10214840;28;20042;-85
2021/12/12 18:38:03;;;;;;;409.40;191.67;;;-3.90;99.90;;;;;;10203539;28;20078;-79
2021/12/12 18:43:06;;;;;;;420.30;182.07;;;-3.90;99.90;;;;;;10211760;28;20027;-81
2021/12/12 18:48:10;;;;;;;404.37;185.13;;;-3.80;99.90;;;;;;10208943;28;20024;-80
2021/12/12 18:53:16;;;;;;;475.27;184.27;;;-3.80;99.90;;;;;;10215929;28;20108;-81
2021/12/12 18:58:23;;;;;;;556.37;201.90;;;-3.80;99.90;;;;;;10204764;28;20036;-83
2021/12/12 19:03:35;;;;;;;458.97;182.07;;;-3.70;99.90;;;;;;10209212;28;20059;-81
2021/12/12 19:08:43;;;;;;;529.63;204.70;;;-3.70;99.90;;;;;;10205810;28;20019;-84
2021/12/12 19:13:47;;;;;;;702.50;257.70;;;-3.50;99.90;;;;;;10213161;28;20133;-85
2021/12/12 19:18:53;;;;;;;652.03;232.90;;;-3.40;99.90;;;;;;10208999;28;20079;-87
2021/12/12 19:24:12;;;;;;;619.95;232.40;;;-3.20;99.90;;;;;;10213546;29;20050;-83
2021/12/12 19:29:26;;;;;;;613.57;248.77;;;-3.10;99.90;;;;;;10218616;28;20035;-84
2021/12/12 19:34:33;;;;;;;632.87;251.83;;;-3.00;99.90;;;;;;10224623;28;20077;-82
2021/12/12 19:39:46;;;;;;;554.70;209.67;;;-3.00;99.90;;;;;;10221845;28;20118;-84
2021/12/12 19:44:49;;;;;;;559.30;199.47;;;-2.90;99.90;;;;;;10216729;28;20223;-84
2021/12/12 19:49:54;;;;;;;791.53;250.43;;;-3.00;99.90;;;;;;10220666;29;20463;-84
2021/12/12 19:55:02;;;;;;;512.67;184.50;;;-3.00;99.90;;;;;;10209157;28;20053;-82
2021/12/12 20:00:18;;;;;;;478.33;178.63;;;-3.10;99.90;;;;;;10209924;28;20031;-85
2021/12/12 20:05:21;;;;;;;664.78;215.50;;;-3.20;99.90;;;;;;10215064;28;20102;-83
2021/12/12 20:10:26;;;;;;;801.83;231.73;;;-3.30;99.90;;;;;;10212461;28;20098;-83
2021/12/12 20:15:32;;;;;;;375.97;147.60;;;-3.40;99.90;;;;;;10211841;28;20068;-84
2021/12/12 20:20:38;;;;;;;762.77;247.93;;;-3.40;99.90;;;;;;10231721;28;20118;-83
2021/12/12 20:25:43;;;;;;;361.13;152.90;;;-3.50;99.90;;;;;;10215728;29;20036;-85
2021/12/12 20:30:52;;;;;;;334.90;137.93;;;-3.60;99.90;;;;;;10213238;29;20038;-83
2021/12/12 20:36:07;;;;;;;374.87;155.37;;;-3.70;99.90;;;;;;10214325;28;20039;-85
2021/12/12 20:41:14;;;;;;;583.93;241.80;;;-3.90;99.90;;;;;;10213027;29;20067;-84
2021/12/12 20:46:24;;;;;;;438.90;187.60;;;-3.90;99.90;;;;;;10211651;29;20028;-85
2021/12/12 20:51:31;;;;;;;652.93;241.93;;;-3.90;99.90;;;;;;10213914;29;20050;-86
2021/12/12 20:56:38;;;;;;;434.57;181.30;;;-4.00;99.90;;;;;;10212825;28;20082;-83
2021/12/12 21:01:50;;;;;;;524.83;216.80;;;-4.20;99.90;;;;;;10210230;28;20152;-84
2021/12/12 21:07:07;;;;;;;516.50;218.07;;;-4.20;99.90;;;;;;10212682;28;20052;-84
2021/12/12 21:12:17;;;;;;;612.83;249.53;;;-4.20;99.90;;;;;;10216118;29;20038;-85
2021/12/12 21:17:26;;;;;;;999.50;332.37;;;-4.20;99.90;;;;;;10214496;29;20051;-85
2021/12/12 21:22:45;;;;;;;752.80;280.27;;;-4.20;99.90;;;;;;10213868;28;20067;-85
2021/12/12 21:27:58;;;;;;;;;;;;;;;;;;;;;
2021/12/12 21:32:59;;;;;;;1450.30;384.13;;;-4.30;99.90;;;;;;10204799;29;20055;-83
2021/12/12 21:38:17;;;;;;;483.27;209.53;;;-4.30;99.90;;;;;;10206656;29;20035;-83
2021/12/12 21:43:18;;;;;;;469.73;201.33;;;-4.40;99.90;;;;;;10209042;28;20066;-83
2021/12/12 21:48:24;;;;;;;507.87;210.27;;;-4.40;99.90;;;;;;10208415;28;20054;-86
2021/12/12 21:53:31;;;;;;;677.80;244.68;;;-4.40;99.90;;;;;;10208805;28;20027;-84
2021/12/12 21:58:42;;;;;;;668.17;250.50;;;-4.30;99.90;;;;;;10208707;29;20027;-83
2021/12/12 22:03:55;;;;;;;421.23;184.97;;;-4.40;99.90;;;;;;10207098;29;20547;-85
2021/12/12 22:09:06;;;;;;;406.47;184.20;;;-4.40;99.90;;;;;;10210602;29;20024;-82
2021/12/12 22:14:11;;;;;;;403.67;172.33;;;-4.40;99.90;;;;;;10210061;29;20039;-82
2021/12/12 22:19:22;;;;;;;414.70;176.80;;;-4.30;99.90;;;;;;10209500;29;20055;-81
2021/12/12 22:24:29;;;;;;;435.17;186.50;;;-4.30;99.90;;;;;;10215544;29;21644;-85
2021/12/12 22:29:33;;;;;;;470.07;190.73;;;-4.20;99.90;;;;;;10210281;29;20035;-85
2021/12/12 22:34:41;;;;;;;453.10;174.97;;;-4.10;99.90;;;;;;10216442;29;20383;-84
2021/12/12 22:39:47;;;;;;;581.53;177.20;;;-4.00;99.90;;;;;;10208691;29;20479;-81
2021/12/12 22:44:53;;;;;;;;;;;-4.10;99.90;;;;;;10213025;29;20054;-83
2021/12/12 22:49:57;;;;;;;601.67;228.73;;;-4.20;99.90;;;;;;10211794;28;19918;-82
2021/12/12 22:55:06;;;;;;;620.73;229.40;;;-4.20;99.90;;;;;;10215420;29;20127;-85
2021/12/12 23:00:28;;;;;;;813.83;247.87;;;-4.20;99.90;;;;;;10204081;29;20038;-82
2021/12/12 23:05:32;;;;;;;580.30;205.00;;;-4.20;99.90;;;;;;10214689;28;20163;-83
2021/12/12 23:10:38;;;;;;;615.60;197.33;;;-4.30;99.90;;;;;;10219216;29;20036;-82
2021/12/12 23:15:45;;;;;;;611.53;186.57;;;-4.40;99.90;;;;;;10212326;29;20055;-84
2021/12/12 23:21:03;;;;;;;482.97;177.43;;;-4.50;99.90;;;;;;10221625;28;20026;-86
2021/12/12 23:26:09;;;;;;;407.57;145.47;;;-4.60;99.90;;;;;;10218528;28;20035;-83
2021/12/12 23:31:12;;;;;;;393.87;146.70;;;-4.70;99.90;;;;;;10214209;29;20139;-83
2021/12/12 23:36:15;;;;;;;339.00;126.80;;;-4.80;99.90;;;;;;10214725;28;20094;-84
2021/12/12 23:41:35;;;;;;;340.73;129.60;;;-4.90;99.90;;;;;;10215558;29;20051;-82
2021/12/12 23:46:50;;;;;;;318.63;118.60;;;-5.00;99.90;;;;;;10210421;29;20176;-82
2021/12/12 23:51:59;;;;;;;345.75;128.20;;;-5.10;99.90;;;;;;10216121;29;20539;-83
2021/12/12 23:57:06;;;;;;;326.23;120.70;;;-5.20;99.90;;;;;;10212793;29;20035;-83
